sensor_id;sensor_type;location;lat;lon;timestamp;P1;durP1;ratioP1;P2;durP2;ratioP2
31734;SDS011;18313;48.518;9.124;2024-03-02T00:01:56;24.25;;;13.55;;
31734;SDS011;18313;48.518;9.124;2024-03-02T00:04:23;26.23;;;14.13;;
31734;SDS011;18313;48.518;9.124;2024-03-02T00:06:53;32.80;;;15.50;;
31734;SDS011;18313;48.518;9.124;2024-03-02T00:09:23;26.25;;;14.65;;
31734;SDS011;18313;48.518;9.124;2024-03-02T00:11:51;21.92;;;14.18;;
31734;SDS011;18313;48.518;9.124;2024-03-02T00:14:18;14.27;;;7.93;;
31734;SDS011;18313;48.518;9.124;2024-03-02T00:16:45;12.32;;;7.22;;
31734;SDS011;18313;48.518;9.124;2024-03-02T00:19:13;12.93;;;6.95;;
31734;SDS011;18313;48.518;9.124;2024-03-02T00:21:40;10.85;;;6.90;;
31734;SDS011;18313;48.518;9.124;2024-03-02T00:24:53;13.18;;;7.65;;
31734;SDS011;18313;48.518;9.124;2024-03-02T00:26:59;12.27;;;7.25;;
31734;SDS011;18313;48.518;9.124;2024-03-02T00:29:31;13.50;;;8.10;;
31734;SDS011;18313;48.518;9.124;2024-03-02T00:31:58;11.27;;;7.55;;
31734;SDS011;18313;48.518;9.124;2024-03-02T00:34:27;11.63;;;7.25;;
31734;SDS011;18313;48.518;9.124;2024-03-02T00:36:57;12.10;;;7.78;;
31734;SDS011;18313;48.518;9.124;2024-03-02T00:39:29;13.90;;;7.97;;
31734;SDS011;18313;48.518;9.124;2024-03-02T00:41:56;10.48;;;7.30;;
31734;SDS011;18313;48.518;9.124;2024-03-02T00:44:25;11.13;;;7.53;;
31734;SDS011;18313;48.518;9.124;2024-03-02T00:46:53;16.33;;;8.18;;
31734;SDS011;18313;48.518;9.124;2024-03-02T00:49:28;12.23;;;7.60;;
31734;SDS011;18313;48.518;9.124;2024-03-02T00:51:56;11.88;;;7.38;;
31734;SDS011;18313;48.518;9.124;2024-03-02T00:54:25;11.05;;;8.32;;
31734;SDS011;18313;48.518;9.124;2024-03-02T00:56:53;12.63;;;7.75;;
31734;SDS011;18313;48.518;9.124;2024-03-02T00:59:22;10.98;;;7.68;;
31734;SDS011;18313;48.518;9.124;2024-03-02T01:01:50;12.35;;;8.15;;
31734;SDS011;18313;48.518;9.124;2024-03-02T01:04:18;12.40;;;7.72;;
31734;SDS011;18313;48.518;9.124;2024-03-02T01:06:47;10.25;;;7.00;;
31734;SDS011;18313;48.518;9.124;2024-03-02T01:09:18;11.80;;;7.95;;
31734;SDS011;18313;48.518;9.124;2024-03-02T01:11:51;12.82;;;8.32;;
31734;SDS011;18313;48.518;9.124;2024-03-02T01:14:18;12.23;;;7.63;;
31734;SDS011;18313;48.518;9.124;2024-03-02T01:16:47;13.20;;;7.38;;
31734;SDS011;18313;48.518;9.124;2024-03-02T01:19:14;9.63;;;6.53;;
31734;SDS011;18313;48.518;9.124;2024-03-02T01:21:43;11.23;;;7.15;;
31734;SDS011;18313;48.518;9.124;2024-03-02T01:24:17;13.38;;;7.90;;
31734;SDS011;18313;48.518;9.124;2024-03-02T01:26:44;14.07;;;8.07;;
31734;SDS011;18313;48.518;9.124;2024-03-02T01:29:14;13.05;;;8.57;;
31734;SDS011;18313;48.518;9.124;2024-03-02T01:31:41;11.73;;;8.02;;
31734;SDS011;18313;48.518;9.124;2024-03-02T01:34:11;13.10;;;8.38;;
31734;SDS011;18313;48.518;9.124;2024-03-02T01:36:39;11.68;;;7.68;;
31734;SDS011;18313;48.518;9.124;2024-03-02T01:39:06;12.05;;;7.55;;
31734;SDS011;18313;48.518;9.124;2024-03-02T01:41:35;12.15;;;7.63;;
31734;SDS011;18313;48.518;9.124;2024-03-02T01:44:03;10.60;;;7.47;;
31734;SDS011;18313;48.518;9.124;2024-03-02T01:46:32;14.30;;;8.00;;
31734;SDS011;18313;48.518;9.124;2024-03-02T01:48:59;13.23;;;7.75;;
31734;SDS011;18313;48.518;9.124;2024-03-02T01:51:26;13.82;;;7.20;;
31734;SDS011;18313;48.518;9.124;2024-03-02T01:53:53;13.95;;;8.52;;
31734;SDS011;18313;48.518;9.124;2024-03-02T01:56:21;12.38;;;7.97;;
31734;SDS011;18313;48.518;9.124;2024-03-02T01:58:48;13.63;;;8.70;;
31734;SDS011;18313;48.518;9.124;2024-03-02T02:01:15;12.98;;;7.97;;
31734;SDS011;18313;48.518;9.124;2024-03-02T02:03:44;10.52;;;7.75;;
31734;SDS011;18313;48.518;9.124;2024-03-02T02:06:12;14.85;;;9.02;;
31734;SDS011;18313;48.518;9.124;2024-03-02T02:08:39;11.55;;;7.72;;
31734;SDS011;18313;48.518;9.124;2024-03-02T02:11:08;15.82;;;9.60;;
31734;SDS011;18313;48.518;9.124;2024-03-02T02:13:35;14.20;;;9.38;;
31734;SDS011;18313;48.518;9.124;2024-03-02T02:16:06;14.18;;;9.05;;
31734;SDS011;18313;48.518;9.124;2024-03-02T02:18:36;12.75;;;8.70;;
31734;SDS011;18313;48.518;9.124;2024-03-02T02:21:04;12.43;;;8.23;;
31734;SDS011;18313;48.518;9.124;2024-03-02T02:23:31;14.52;;;9.10;;
31734;SDS011;18313;48.518;9.124;2024-03-02T02:25:58;13.13;;;8.98;;
31734;SDS011;18313;48.518;9.124;2024-03-02T02:28:27;13.75;;;8.70;;
31734;SDS011;18313;48.518;9.124;2024-03-02T02:30:55;14.18;;;8.82;;
31734;SDS011;18313;48.518;9.124;2024-03-02T02:33:27;11.55;;;8.18;;
31734;SDS011;18313;48.518;9.124;2024-03-02T02:35:54;13.30;;;9.30;;
31734;SDS011;18313;48.518;9.124;2024-03-02T02:38:23;13.73;;;8.85;;
31734;SDS011;18313;48.518;9.124;2024-03-02T02:40:51;13.93;;;9.00;;
31734;SDS011;18313;48.518;9.124;2024-03-02T02:43:18;16.58;;;9.63;;
31734;SDS011;18313;48.518;9.124;2024-03-02T02:45:45;14.93;;;9.55;;
31734;SDS011;18313;48.518;9.124;2024-03-02T02:48:12;14.25;;;9.32;;
31734;SDS011;18313;48.518;9.124;2024-03-02T02:50:41;15.40;;;10.10;;
31734;SDS011;18313;48.518;9.124;2024-03-02T02:53:08;18.35;;;10.77;;
31734;SDS011;18313;48.518;9.124;2024-03-02T02:55:36;13.50;;;9.27;;
31734;SDS011;18313;48.518;9.124;2024-03-02T02:58:06;14.82;;;9.52;;
31734;SDS011;18313;48.518;9.124;2024-03-02T03:00:34;12.68;;;9.23;;
31734;SDS011;18313;48.518;9.124;2024-03-02T03:03:01;16.63;;;9.38;;
31734;SDS011;18313;48.518;9.124;2024-03-02T03:05:28;12.68;;;9.07;;
31734;SDS011;18313;48.518;9.124;2024-03-02T03:07:56;14.85;;;9.65;;
31734;SDS011;18313;48.518;9.124;2024-03-02T03:10:23;17.17;;;9.55;;
31734;SDS011;18313;48.518;9.124;2024-03-02T03:12:52;14.75;;;9.52;;
31734;SDS011;18313;48.518;9.124;2024-03-02T03:15:24;15.80;;;10.32;;
31734;SDS011;18313;48.518;9.124;2024-03-02T03:17:52;16.98;;;10.63;;
31734;SDS011;18313;48.518;9.124;2024-03-02T03:20:19;16.30;;;10.82;;
31734;SDS011;18313;48.518;9.124;2024-03-02T03:22:48;14.73;;;9.60;;
31734;SDS011;18313;48.518;9.124;2024-03-02T03:25:18;14.00;;;9.70;;
31734;SDS011;18313;48.518;9.124;2024-03-02T03:27:47;15.52;;;9.68;;
31734;SDS011;18313;48.518;9.124;2024-03-02T03:30:16;15.10;;;9.23;;
31734;SDS011;18313;48.518;9.124;2024-03-02T03:32:43;14.73;;;9.48;;
31734;SDS011;18313;48.518;9.124;2024-03-02T03:35:12;12.80;;;9.10;;
31734;SDS011;18313;48.518;9.124;2024-03-02T03:37:43;14.95;;;9.10;;
31734;SDS011;18313;48.518;9.124;2024-03-02T03:40:12;16.00;;;10.60;;
31734;SDS011;18313;48.518;9.124;2024-03-02T03:42:41;14.25;;;9.38;;
31734;SDS011;18313;48.518;9.124;2024-03-02T03:45:08;15.45;;;10.20;;
31734;SDS011;18313;48.518;9.124;2024-03-02T03:47:36;17.17;;;11.70;;
31734;SDS011;18313;48.518;9.124;2024-03-02T03:50:07;23.05;;;14.27;;
31734;SDS011;18313;48.518;9.124;2024-03-02T03:52:36;23.17;;;14.55;;
31734;SDS011;18313;48.518;9.124;2024-03-02T03:55:04;23.08;;;14.18;;
31734;SDS011;18313;48.518;9.124;2024-03-02T03:57:36;18.42;;;12.48;;
31734;SDS011;18313;48.518;9.124;2024-03-02T04:00:07;17.35;;;12.02;;
31734;SDS011;18313;48.518;9.124;2024-03-02T04:02:37;16.73;;;10.57;;
31734;SDS011;18313;48.518;9.124;2024-03-02T04:05:05;16.20;;;10.07;;
31734;SDS011;18313;48.518;9.124;2024-03-02T04:07:36;14.98;;;10.73;;
31734;SDS011;18313;48.518;9.124;2024-03-02T04:10:07;15.88;;;10.07;;
31734;SDS011;18313;48.518;9.124;2024-03-02T04:12:36;16.55;;;11.13;;
31734;SDS011;18313;48.518;9.124;2024-03-02T04:15:04;18.77;;;11.50;;
31734;SDS011;18313;48.518;9.124;2024-03-02T04:17:33;20.50;;;11.82;;
31734;SDS011;18313;48.518;9.124;2024-03-02T04:20:00;17.95;;;11.65;;
31734;SDS011;18313;48.518;9.124;2024-03-02T04:22:28;18.42;;;11.52;;
31734;SDS011;18313;48.518;9.124;2024-03-02T04:25:02;16.95;;;11.18;;
31734;SDS011;18313;48.518;9.124;2024-03-02T04:27:34;13.93;;;9.88;;
31734;SDS011;18313;48.518;9.124;2024-03-02T04:30:02;17.02;;;10.15;;
31734;SDS011;18313;48.518;9.124;2024-03-02T04:32:34;15.38;;;10.15;;
31734;SDS011;18313;48.518;9.124;2024-03-02T04:35:03;15.00;;;10.07;;
31734;SDS011;18313;48.518;9.124;2024-03-02T04:37:34;16.80;;;10.30;;
31734;SDS011;18313;48.518;9.124;2024-03-02T04:40:01;17.42;;;10.80;;
31734;SDS011;18313;48.518;9.124;2024-03-02T04:42:29;14.50;;;9.65;;
31734;SDS011;18313;48.518;9.124;2024-03-02T04:44:57;14.48;;;9.38;;
31734;SDS011;18313;48.518;9.124;2024-03-02T04:47:24;16.23;;;9.65;;
31734;SDS011;18313;48.518;9.124;2024-03-02T04:49:52;14.68;;;9.52;;
31734;SDS011;18313;48.518;9.124;2024-03-02T04:52:25;16.33;;;9.43;;
31734;SDS011;18313;48.518;9.124;2024-03-02T04:54:53;13.48;;;9.52;;
31734;SDS011;18313;48.518;9.124;2024-03-02T04:57:39;13.18;;;8.90;;
31734;SDS011;18313;48.518;9.124;2024-03-02T05:00:09;15.27;;;9.48;;
31734;SDS011;18313;48.518;9.124;2024-03-02T05:02:37;13.73;;;9.57;;
31734;SDS011;18313;48.518;9.124;2024-03-02T05:05:05;13.10;;;8.50;;
31734;SDS011;18313;48.518;9.124;2024-03-02T05:07:36;13.25;;;8.70;;
31734;SDS011;18313;48.518;9.124;2024-03-02T05:10:13;14.05;;;8.82;;
31734;SDS011;18313;48.518;9.124;2024-03-02T05:12:41;18.00;;;9.88;;
31734;SDS011;18313;48.518;9.124;2024-03-02T05:15:09;15.30;;;9.68;;
31734;SDS011;18313;48.518;9.124;2024-03-02T05:17:42;16.15;;;10.95;;
31734;SDS011;18313;48.518;9.124;2024-03-02T05:20:12;18.52;;;11.63;;
31734;SDS011;18313;48.518;9.124;2024-03-02T05:22:40;19.13;;;11.95;;
31734;SDS011;18313;48.518;9.124;2024-03-02T05:25:08;17.30;;;11.35;;
31734;SDS011;18313;48.518;9.124;2024-03-02T05:27:37;21.55;;;12.07;;
31734;SDS011;18313;48.518;9.124;2024-03-02T05:30:12;18.33;;;11.45;;
31734;SDS011;18313;48.518;9.124;2024-03-02T05:32:42;19.23;;;12.35;;
31734;SDS011;18313;48.518;9.124;2024-03-02T05:35:09;19.73;;;11.32;;
31734;SDS011;18313;48.518;9.124;2024-03-02T05:37:39;22.05;;;12.85;;
31734;SDS011;18313;48.518;9.124;2024-03-02T05:40:07;24.73;;;13.65;;
31734;SDS011;18313;48.518;9.124;2024-03-02T05:42:35;20.52;;;13.23;;
31734;SDS011;18313;48.518;9.124;2024-03-02T05:45:03;21.35;;;13.02;;
31734;SDS011;18313;48.518;9.124;2024-03-02T05:47:31;22.55;;;12.02;;
31734;SDS011;18313;48.518;9.124;2024-03-02T05:49:59;20.02;;;11.35;;
31734;SDS011;18313;48.518;9.124;2024-03-02T05:52:27;17.23;;;11.48;;
31734;SDS011;18313;48.518;9.124;2024-03-02T05:54:57;17.70;;;10.65;;
31734;SDS011;18313;48.518;9.124;2024-03-02T05:57:25;16.80;;;11.13;;
31734;SDS011;18313;48.518;9.124;2024-03-02T06:00:05;20.77;;;11.38;;
31734;SDS011;18313;48.518;9.124;2024-03-02T06:02:35;17.67;;;10.93;;
31734;SDS011;18313;48.518;9.124;2024-03-02T06:05:05;17.88;;;11.55;;
31734;SDS011;18313;48.518;9.124;2024-03-02T06:07:34;19.42;;;11.82;;
31734;SDS011;18313;48.518;9.124;2024-03-02T06:10:02;22.52;;;12.95;;
31734;SDS011;18313;48.518;9.124;2024-03-02T06:12:30;19.65;;;11.88;;
31734;SDS011;18313;48.518;9.124;2024-03-02T06:14:59;18.50;;;12.15;;
31734;SDS011;18313;48.518;9.124;2024-03-02T06:17:27;21.92;;;12.73;;
31734;SDS011;18313;48.518;9.124;2024-03-02T06:19:54;20.23;;;12.05;;
31734;SDS011;18313;48.518;9.124;2024-03-02T06:22:22;19.58;;;12.73;;
31734;SDS011;18313;48.518;9.124;2024-03-02T06:24:54;19.48;;;11.90;;
31734;SDS011;18313;48.518;9.124;2024-03-02T06:27:22;19.25;;;11.43;;
31734;SDS011;18313;48.518;9.124;2024-03-02T06:29:52;19.10;;;10.70;;
31734;SDS011;18313;48.518;9.124;2024-03-02T06:32:20;16.95;;;10.40;;
31734;SDS011;18313;48.518;9.124;2024-03-02T06:34:47;16.10;;;10.38;;
31734;SDS011;18313;48.518;9.124;2024-03-02T06:37:19;16.00;;;10.20;;
31734;SDS011;18313;48.518;9.124;2024-03-02T06:39:47;15.45;;;9.30;;
31734;SDS011;18313;48.518;9.124;2024-03-02T06:42:15;46.72;;;9.25;;
31734;SDS011;18313;48.518;9.124;2024-03-02T06:44:42;23.88;;;8.73;;
31734;SDS011;18313;48.518;9.124;2024-03-02T06:47:10;10.95;;;7.53;;
31734;SDS011;18313;48.518;9.124;2024-03-02T06:49:38;16.92;;;8.32;;
31734;SDS011;18313;48.518;9.124;2024-03-02T06:52:05;16.75;;;8.13;;
31734;SDS011;18313;48.518;9.124;2024-03-02T06:54:33;13.77;;;9.15;;
31734;SDS011;18313;48.518;9.124;2024-03-02T06:57:01;14.68;;;10.27;;
31734;SDS011;18313;48.518;9.124;2024-03-02T06:59:29;15.60;;;10.85;;
31734;SDS011;18313;48.518;9.124;2024-03-02T07:01:56;17.70;;;10.27;;
31734;SDS011;18313;48.518;9.124;2024-03-02T07:04:24;14.10;;;9.82;;
31734;SDS011;18313;48.518;9.124;2024-03-02T07:06:53;17.05;;;10.00;;
31734;SDS011;18313;48.518;9.124;2024-03-02T07:09:21;15.05;;;9.55;;
31734;SDS011;18313;48.518;9.124;2024-03-02T07:11:49;15.13;;;10.75;;
31734;SDS011;18313;48.518;9.124;2024-03-02T07:14:18;16.35;;;10.57;;
31734;SDS011;18313;48.518;9.124;2024-03-02T07:16:45;16.50;;;10.52;;
31734;SDS011;18313;48.518;9.124;2024-03-02T07:19:13;15.68;;;10.15;;
31734;SDS011;18313;48.518;9.124;2024-03-02T07:21:41;18.27;;;11.48;;
31734;SDS011;18313;48.518;9.124;2024-03-02T07:24:08;17.77;;;11.38;;
31734;SDS011;18313;48.518;9.124;2024-03-02T07:26:39;16.27;;;10.77;;
31734;SDS011;18313;48.518;9.124;2024-03-02T07:29:10;17.48;;;10.50;;
31734;SDS011;18313;48.518;9.124;2024-03-02T07:31:38;14.77;;;9.15;;
31734;SDS011;18313;48.518;9.124;2024-03-02T07:34:06;16.13;;;9.32;;
31734;SDS011;18313;48.518;9.124;2024-03-02T07:36:33;15.88;;;9.93;;
31734;SDS011;18313;48.518;9.124;2024-03-02T07:39:03;15.85;;;9.77;;
31734;SDS011;18313;48.518;9.124;2024-03-02T07:41:31;14.63;;;9.85;;
31734;SDS011;18313;48.518;9.124;2024-03-02T07:43:59;14.93;;;10.18;;
31734;SDS011;18313;48.518;9.124;2024-03-02T07:46:27;13.95;;;10.02;;
31734;SDS011;18313;48.518;9.124;2024-03-02T07:48:56;17.25;;;11.27;;
31734;SDS011;18313;48.518;9.124;2024-03-02T07:51:23;15.02;;;10.35;;
31734;SDS011;18313;48.518;9.124;2024-03-02T07:53:50;14.95;;;10.07;;
31734;SDS011;18313;48.518;9.124;2024-03-02T07:56:18;18.73;;;12.25;;
31734;SDS011;18313;48.518;9.124;2024-03-02T07:58:49;18.77;;;13.20;;
31734;SDS011;18313;48.518;9.124;2024-03-02T08:01:16;21.15;;;13.57;;
31734;SDS011;18313;48.518;9.124;2024-03-02T08:03:44;18.77;;;12.95;;
31734;SDS011;18313;48.518;9.124;2024-03-02T08:06:17;19.00;;;12.35;;
31734;SDS011;18313;48.518;9.124;2024-03-02T08:08:44;123.18;;;21.83;;
31734;SDS011;18313;48.518;9.124;2024-03-02T08:11:11;75.35;;;17.38;;
31734;SDS011;18313;48.518;9.124;2024-03-02T08:13:39;25.73;;;13.68;;
31734;SDS011;18313;48.518;9.124;2024-03-02T08:16:06;21.38;;;13.75;;
31734;SDS011;18313;48.518;9.124;2024-03-02T08:18:37;23.27;;;15.07;;
31734;SDS011;18313;48.518;9.124;2024-03-02T08:21:05;18.95;;;12.23;;
31734;SDS011;18313;48.518;9.124;2024-03-02T08:23:32;20.50;;;12.98;;
31734;SDS011;18313;48.518;9.124;2024-03-02T08:25:59;21.92;;;14.02;;
31734;SDS011;18313;48.518;9.124;2024-03-02T08:28:27;22.90;;;14.65;;
31734;SDS011;18313;48.518;9.124;2024-03-02T08:30:54;21.42;;;13.32;;
31734;SDS011;18313;48.518;9.124;2024-03-02T08:33:22;22.27;;;13.13;;
31734;SDS011;18313;48.518;9.124;2024-03-02T08:35:49;20.33;;;13.18;;
31734;SDS011;18313;48.518;9.124;2024-03-02T08:38:17;23.17;;;14.13;;
31734;SDS011;18313;48.518;9.124;2024-03-02T08:40:44;21.70;;;13.02;;
31734;SDS011;18313;48.518;9.124;2024-03-02T08:43:11;16.45;;;10.45;;
31734;SDS011;18313;48.518;9.124;2024-03-02T08:45:39;14.10;;;9.65;;
31734;SDS011;18313;48.518;9.124;2024-03-02T08:48:07;15.95;;;10.13;;
31734;SDS011;18313;48.518;9.124;2024-03-02T08:50:35;16.10;;;9.90;;
31734;SDS011;18313;48.518;9.124;2024-03-02T08:53:03;15.57;;;10.43;;
31734;SDS011;18313;48.518;9.124;2024-03-02T08:55:30;15.02;;;9.35;;
31734;SDS011;18313;48.518;9.124;2024-03-02T08:57:58;17.25;;;11.05;;
31734;SDS011;18313;48.518;9.124;2024-03-02T09:00:25;20.83;;;11.63;;
31734;SDS011;18313;48.518;9.124;2024-03-02T09:02:52;18.88;;;12.05;;
31734;SDS011;18313;48.518;9.124;2024-03-02T09:05:20;15.82;;;10.18;;
31734;SDS011;18313;48.518;9.124;2024-03-02T09:07:47;18.20;;;10.18;;
31734;SDS011;18313;48.518;9.124;2024-03-02T09:10:14;14.70;;;9.40;;
31734;SDS011;18313;48.518;9.124;2024-03-02T09:12:42;13.88;;;8.48;;
31734;SDS011;18313;48.518;9.124;2024-03-02T09:15:10;12.50;;;8.10;;
31734;SDS011;18313;48.518;9.124;2024-03-02T09:17:37;11.45;;;7.38;;
31734;SDS011;18313;48.518;9.124;2024-03-02T09:20:05;11.88;;;7.72;;
31734;SDS011;18313;48.518;9.124;2024-03-02T09:22:32;8.95;;;6.60;;
31734;SDS011;18313;48.518;9.124;2024-03-02T09:25:00;10.70;;;6.32;;
31734;SDS011;18313;48.518;9.124;2024-03-02T09:27:27;8.88;;;5.93;;
31734;SDS011;18313;48.518;9.124;2024-03-02T09:29:55;9.48;;;5.90;;
31734;SDS011;18313;48.518;9.124;2024-03-02T09:32:23;7.72;;;5.38;;
31734;SDS011;18313;48.518;9.124;2024-03-02T09:34:51;7.75;;;4.80;;
31734;SDS011;18313;48.518;9.124;2024-03-02T09:37:20;7.38;;;5.07;;
31734;SDS011;18313;48.518;9.124;2024-03-02T09:39:47;7.82;;;5.60;;
31734;SDS011;18313;48.518;9.124;2024-03-02T09:42:15;7.65;;;5.20;;
31734;SDS011;18313;48.518;9.124;2024-03-02T09:44:42;8.07;;;5.00;;
31734;SDS011;18313;48.518;9.124;2024-03-02T09:47:12;7.53;;;5.32;;
31734;SDS011;18313;48.518;9.124;2024-03-02T09:49:40;8.82;;;6.15;;
31734;SDS011;18313;48.518;9.124;2024-03-02T09:52:10;9.25;;;5.65;;
31734;SDS011;18313;48.518;9.124;2024-03-02T09:54:37;8.80;;;5.82;;
31734;SDS011;18313;48.518;9.124;2024-03-02T09:57:05;8.23;;;5.22;;
31734;SDS011;18313;48.518;9.124;2024-03-02T09:59:32;7.13;;;5.05;;
31734;SDS011;18313;48.518;9.124;2024-03-02T10:02:00;8.60;;;5.68;;
31734;SDS011;18313;48.518;9.124;2024-03-02T10:04:29;7.72;;;5.38;;
31734;SDS011;18313;48.518;9.124;2024-03-02T10:07:09;9.15;;;5.40;;
31734;SDS011;18313;48.518;9.124;2024-03-02T10:09:37;8.52;;;6.10;;
31734;SDS011;18313;48.518;9.124;2024-03-02T10:12:05;8.90;;;6.10;;
31734;SDS011;18313;48.518;9.124;2024-03-02T10:14:34;7.85;;;5.07;;
31734;SDS011;18313;48.518;9.124;2024-03-02T10:17:02;9.65;;;4.60;;
31734;SDS011;18313;48.518;9.124;2024-03-02T10:19:30;7.82;;;4.78;;
31734;SDS011;18313;48.518;9.124;2024-03-02T10:22:00;8.50;;;4.88;;
31734;SDS011;18313;48.518;9.124;2024-03-02T10:24:39;8.88;;;5.35;;
31734;SDS011;18313;48.518;9.124;2024-03-02T10:27:18;7.93;;;4.85;;
31734;SDS011;18313;48.518;9.124;2024-03-02T10:29:50;7.38;;;5.03;;
31734;SDS011;18313;48.518;9.124;2024-03-02T10:32:17;6.75;;;4.50;;
31734;SDS011;18313;48.518;9.124;2024-03-02T10:34:45;7.97;;;4.85;;
31734;SDS011;18313;48.518;9.124;2024-03-02T10:37:14;6.65;;;4.60;;
31734;SDS011;18313;48.518;9.124;2024-03-02T10:39:43;7.03;;;4.50;;
31734;SDS011;18313;48.518;9.124;2024-03-02T10:42:13;7.22;;;4.38;;
31734;SDS011;18313;48.518;9.124;2024-03-02T10:44:41;6.20;;;4.20;;
31734;SDS011;18313;48.518;9.124;2024-03-02T10:47:09;8.20;;;4.07;;
31734;SDS011;18313;48.518;9.124;2024-03-02T10:49:41;6.43;;;3.65;;
31734;SDS011;18313;48.518;9.124;2024-03-02T10:52:12;6.18;;;3.67;;
31734;SDS011;18313;48.518;9.124;2024-03-02T10:54:39;6.15;;;3.40;;
31734;SDS011;18313;48.518;9.124;2024-03-02T10:57:07;4.85;;;3.05;;
31734;SDS011;18313;48.518;9.124;2024-03-02T10:59:37;6.47;;;3.95;;
31734;SDS011;18313;48.518;9.124;2024-03-02T11:02:18;6.25;;;3.47;;
31734;SDS011;18313;48.518;9.124;2024-03-02T11:04:49;5.25;;;3.22;;
31734;SDS011;18313;48.518;9.124;2024-03-02T11:07:21;6.00;;;4.07;;
31734;SDS011;18313;48.518;9.124;2024-03-02T11:09:54;5.13;;;3.70;;
31734;SDS011;18313;48.518;9.124;2024-03-02T11:12:42;5.85;;;3.95;;
31734;SDS011;18313;48.518;9.124;2024-03-02T11:15:18;5.28;;;3.63;;
31734;SDS011;18313;48.518;9.124;2024-03-02T11:17:47;4.63;;;2.88;;
31734;SDS011;18313;48.518;9.124;2024-03-02T11:20:15;5.85;;;2.67;;
31734;SDS011;18313;48.518;9.124;2024-03-02T11:22:44;4.25;;;2.65;;
31734;SDS011;18313;48.518;9.124;2024-03-02T11:25:23;4.18;;;2.50;;
31734;SDS011;18313;48.518;9.124;2024-03-02T11:32:59;4.05;;;2.30;;
31734;SDS011;18313;48.518;9.124;2024-03-02T11:35:27;4.47;;;2.60;;
31734;SDS011;18313;48.518;9.124;2024-03-02T11:37:57;4.55;;;2.63;;
31734;SDS011;18313;48.518;9.124;2024-03-02T11:40:25;4.68;;;2.47;;
31734;SDS011;18313;48.518;9.124;2024-03-02T11:42:52;4.20;;;2.30;;
31734;SDS011;18313;48.518;9.124;2024-03-02T11:45:23;4.40;;;2.42;;
31734;SDS011;18313;48.518;9.124;2024-03-02T11:47:52;3.75;;;2.53;;
31734;SDS011;18313;48.518;9.124;2024-03-02T11:50:31;3.58;;;2.00;;
31734;SDS011;18313;48.518;9.124;2024-03-02T11:53:01;4.25;;;2.15;;
31734;SDS011;18313;48.518;9.124;2024-03-02T11:55:33;3.72;;;1.70;;
31734;SDS011;18313;48.518;9.124;2024-03-02T11:58:05;3.00;;;1.60;;
31734;SDS011;18313;48.518;9.124;2024-03-02T12:00:33;3.63;;;1.60;;
31734;SDS011;18313;48.518;9.124;2024-03-02T12:03:03;2.28;;;1.25;;
31734;SDS011;18313;48.518;9.124;2024-03-02T12:05:30;1.90;;;1.40;;
31734;SDS011;18313;48.518;9.124;2024-03-02T12:07:59;3.03;;;1.48;;
31734;SDS011;18313;48.518;9.124;2024-03-02T12:10:27;2.38;;;1.55;;
31734;SDS011;18313;48.518;9.124;2024-03-02T12:13:05;7.55;;;2.20;;
31734;SDS011;18313;48.518;9.124;2024-03-02T12:15:35;3.85;;;2.10;;
31734;SDS011;18313;48.518;9.124;2024-03-02T12:18:07;3.60;;;1.95;;
31734;SDS011;18313;48.518;9.124;2024-03-02T12:20:34;2.95;;;1.85;;
31734;SDS011;18313;48.518;9.124;2024-03-02T12:23:02;4.70;;;2.10;;
31734;SDS011;18313;48.518;9.124;2024-03-02T12:25:31;3.50;;;2.10;;
31734;SDS011;18313;48.518;9.124;2024-03-02T12:28:00;2.97;;;2.00;;
31734;SDS011;18313;48.518;9.124;2024-03-02T12:30:29;2.90;;;1.75;;
31734;SDS011;18313;48.518;9.124;2024-03-02T12:32:58;3.13;;;2.00;;
31734;SDS011;18313;48.518;9.124;2024-03-02T12:35:25;3.47;;;1.90;;
31734;SDS011;18313;48.518;9.124;2024-03-02T12:37:53;3.28;;;1.80;;
31734;SDS011;18313;48.518;9.124;2024-03-02T12:40:21;3.20;;;2.10;;
31734;SDS011;18313;48.518;9.124;2024-03-02T12:42:50;2.80;;;1.80;;
31734;SDS011;18313;48.518;9.124;2024-03-02T12:45:18;3.28;;;1.90;;
31734;SDS011;18313;48.518;9.124;2024-03-02T12:47:52;3.88;;;1.70;;
31734;SDS011;18313;48.518;9.124;2024-03-02T12:50:20;2.50;;;1.42;;
31734;SDS011;18313;48.518;9.124;2024-03-02T12:52:51;4.00;;;1.73;;
31734;SDS011;18313;48.518;9.124;2024-03-02T12:55:20;4.65;;;2.00;;
31734;SDS011;18313;48.518;9.124;2024-03-02T12:57:51;2.95;;;1.65;;
31734;SDS011;18313;48.518;9.124;2024-03-02T13:00:20;3.22;;;1.80;;
31734;SDS011;18313;48.518;9.124;2024-03-02T13:02:50;2.75;;;1.75;;
31734;SDS011;18313;48.518;9.124;2024-03-02T13:05:19;3.22;;;1.70;;
31734;SDS011;18313;48.518;9.124;2024-03-02T13:07:47;2.47;;;1.60;;
31734;SDS011;18313;48.518;9.124;2024-03-02T13:10:16;2.45;;;1.30;;
31734;SDS011;18313;48.518;9.124;2024-03-02T13:12:45;3.28;;;1.80;;
31734;SDS011;18313;48.518;9.124;2024-03-02T13:15:13;2.55;;;1.35;;
31734;SDS011;18313;48.518;9.124;2024-03-02T13:17:46;3.10;;;1.63;;
31734;SDS011;18313;48.518;9.124;2024-03-02T13:20:14;2.60;;;1.23;;
31734;SDS011;18313;48.518;9.124;2024-03-02T13:22:41;2.55;;;1.42;;
31734;SDS011;18313;48.518;9.124;2024-03-02T13:25:09;1.77;;;1.20;;
31734;SDS011;18313;48.518;9.124;2024-03-02T13:27:38;2.67;;;1.60;;
31734;SDS011;18313;48.518;9.124;2024-03-02T13:30:06;2.55;;;1.35;;
31734;SDS011;18313;48.518;9.124;2024-03-02T13:32:36;3.15;;;1.17;;
31734;SDS011;18313;48.518;9.124;2024-03-02T13:35:03;2.25;;;1.17;;
31734;SDS011;18313;48.518;9.124;2024-03-02T13:37:32;2.13;;;1.17;;
31734;SDS011;18313;48.518;9.124;2024-03-02T13:39:59;2.67;;;1.20;;
31734;SDS011;18313;48.518;9.124;2024-03-02T13:42:27;1.88;;;1.13;;
31734;SDS011;18313;48.518;9.124;2024-03-02T13:44:54;1.23;;;0.90;;
31734;SDS011;18313;48.518;9.124;2024-03-02T13:47:21;2.08;;;1.08;;
31734;SDS011;18313;48.518;9.124;2024-03-02T13:49:48;1.67;;;0.90;;
31734;SDS011;18313;48.518;9.124;2024-03-02T13:52:16;1.83;;;0.88;;
31734;SDS011;18313;48.518;9.124;2024-03-02T13:54:44;1.23;;;0.80;;
31734;SDS011;18313;48.518;9.124;2024-03-02T13:57:12;1.60;;;1.00;;
31734;SDS011;18313;48.518;9.124;2024-03-02T13:59:41;2.67;;;0.98;;
31734;SDS011;18313;48.518;9.124;2024-03-02T14:02:09;1.67;;;0.90;;
31734;SDS011;18313;48.518;9.124;2024-03-02T14:04:38;1.27;;;0.90;;
31734;SDS011;18313;48.518;9.124;2024-03-02T14:07:06;1.60;;;0.70;;
31734;SDS011;18313;48.518;9.124;2024-03-02T14:09:34;1.13;;;0.73;;
31734;SDS011;18313;48.518;9.124;2024-03-02T14:12:02;1.48;;;0.90;;
31734;SDS011;18313;48.518;9.124;2024-03-02T14:14:30;1.52;;;0.75;;
31734;SDS011;18313;48.518;9.124;2024-03-02T14:16:58;1.83;;;0.93;;
31734;SDS011;18313;48.518;9.124;2024-03-02T14:19:33;1.98;;;0.95;;
31734;SDS011;18313;48.518;9.124;2024-03-02T14:22:00;1.20;;;0.88;;
31734;SDS011;18313;48.518;9.124;2024-03-02T14:24:27;1.17;;;0.70;;
31734;SDS011;18313;48.518;9.124;2024-03-02T14:26:56;1.40;;;0.80;;
31734;SDS011;18313;48.518;9.124;2024-03-02T14:29:45;1.17;;;0.70;;
31734;SDS011;18313;48.518;9.124;2024-03-02T14:32:13;2.47;;;0.80;;
31734;SDS011;18313;48.518;9.124;2024-03-02T14:34:40;2.00;;;0.70;;
31734;SDS011;18313;48.518;9.124;2024-03-02T14:37:07;1.52;;;0.80;;
31734;SDS011;18313;48.518;9.124;2024-03-02T14:39:35;1.55;;;0.80;;
31734;SDS011;18313;48.518;9.124;2024-03-02T14:42:03;3.38;;;0.93;;
31734;SDS011;18313;48.518;9.124;2024-03-02T14:44:30;3.15;;;0.90;;
31734;SDS011;18313;48.518;9.124;2024-03-02T14:46:58;2.17;;;0.80;;
31734;SDS011;18313;48.518;9.124;2024-03-02T14:49:25;2.60;;;0.90;;
31734;SDS011;18313;48.518;9.124;2024-03-02T14:51:53;1.58;;;0.80;;